sensor_id;sensor_type;location;lat;lon;timestamp;pressure;altitude;pressure_sealevel;temperature;humidity
72959;BME280;60008;50.826;6.896;2023-01-24T00:00:52;102997.19;;;2.80;100.00
72959;BME280;60008;50.826;6.896;2023-01-24T00:03:37;102994.66;;;2.77;100.00
72959;BME280;60008;50.826;6.896;2023-01-24T00:06:22;102993.78;;;2.78;100.00
72959;BME280;60008;50.826;6.896;2023-01-24T00:09:07;102996.47;;;2.77;100.00
72959;BME280;60008;50.826;6.896;2023-01-24T00:11:51;102998.22;;;2.76;100.00
72959;BME280;60008;50.826;6.896;2023-01-24T00:14:36;103006.00;;;2.78;100.00
72959;BME280;60008;50.826;6.896;2023-01-24T00:17:21;103008.78;;;2.73;100.00
72959;BME280;60008;50.826;6.896;2023-01-24T00:20:07;103004.34;;;2.75;100.00
72959;BME280;60008;50.826;6.896;2023-01-24T00:22:52;103004.31;;;2.77;100.00
72959;BME280;60008;50.826;6.896;2023-01-24T00:25:37;103000.78;;;2.78;100.00
72959;BME280;60008;50.826;6.896;2023-01-24T00:28:22;103000.88;;;2.75;100.00
72959;BME280;60008;50.826;6.896;2023-01-24T00:31:07;103012.06;;;2.80;100.00
72959;BME280;60008;50.826;6.896;2023-01-24T00:33:52;103008.63;;;2.78;100.00
72959;BME280;60008;50.826;6.896;2023-01-24T00:36:36;103011.34;;;2.75;100.00
72959;BME280;60008;50.826;6.896;2023-01-24T00:39:21;103010.53;;;2.74;100.00
72959;BME280;60008;50.826;6.896;2023-01-24T00:42:06;103015.69;;;2.76;100.00
72959;BME280;60008;50.826;6.896;2023-01-24T00:44:51;103017.53;;;2.72;100.00
72959;BME280;60008;50.826;6.896;2023-01-24T00:47:37;103014.94;;;2.72;100.00
72959;BME280;60008;50.826;6.896;2023-01-24T00:50:22;103015.84;;;2.71;100.00
72959;BME280;60008;50.826;6.896;2023-01-24T00:53:07;103020.22;;;2.71;100.00
72959;BME280;60008;50.826;6.896;2023-01-24T00:55:53;103011.53;;;2.70;100.00
72959;BME280;60008;50.826;6.896;2023-01-24T00:58:39;103007.84;;;2.76;100.00
72959;BME280;60008;50.826;6.896;2023-01-24T01:01:24;103009.66;;;2.74;100.00
72959;BME280;60008;50.826;6.896;2023-01-24T01:04:09;103013.97;;;2.75;100.00
72959;BME280;60008;50.826;6.896;2023-01-24T01:06:57;103013.34;;;2.68;100.00
72959;BME280;60008;50.826;6.896;2023-01-24T01:09:42;103016.06;;;2.65;100.00
72959;BME280;60008;50.826;6.896;2023-01-24T01:12:27;103022.78;;;2.72;100.00
72959;BME280;60008;50.826;6.896;2023-01-24T01:15:11;103016.94;;;2.66;100.00
72959;BME280;60008;50.826;6.896;2023-01-24T01:17:58;103021.22;;;2.67;100.00
72959;BME280;60008;50.826;6.896;2023-01-24T01:20:49;103025.56;;;2.68;100.00
72959;BME280;60008;50.826;6.896;2023-01-24T01:23:34;103021.13;;;2.70;100.00
72959;BME280;60008;50.826;6.896;2023-01-24T01:26:20;103027.50;;;2.63;100.00
72959;BME280;60008;50.826;6.896;2023-01-24T01:29:06;103030.13;;;2.63;100.00
72959;BME280;60008;50.826;6.896;2023-01-24T01:31:51;103026.53;;;2.65;100.00
72959;BME280;60008;50.826;6.896;2023-01-24T01:34:36;103021.22;;;2.67;100.00
72959;BME280;60008;50.826;6.896;2023-01-24T01:37:21;103025.69;;;2.65;100.00
72959;BME280;60008;50.826;6.896;2023-01-24T01:40:07;103027.41;;;2.66;100.00
72959;BME280;60008;50.826;6.896;2023-01-24T01:42:55;103033.63;;;2.62;100.00
72959;BME280;60008;50.826;6.896;2023-01-24T01:45:51;103025.75;;;2.63;100.00
72959;BME280;60008;50.826;6.896;2023-01-24T01:48:43;103019.75;;;2.60;100.00
72959;BME280;60008;50.826;6.896;2023-01-24T01:51:42;103018.84;;;2.61;100.00
72959;BME280;60008;50.826;6.896;2023-01-24T01:54:32;103020.53;;;2.62;100.00
72959;BME280;60008;50.826;6.896;2023-01-24T01:57:21;103015.31;;;2.62;100.00
72959;BME280;60008;50.826;6.896;2023-01-24T02:00:13;103018.72;;;2.64;100.00
72959;BME280;60008;50.826;6.896;2023-01-24T02:03:04;103018.84;;;2.61;100.00
72959;BME280;60008;50.826;6.896;2023-01-24T02:06:48;103021.56;;;2.58;100.00
72959;BME280;60008;50.826;6.896;2023-01-24T02:09:43;103030.28;;;2.58;100.00
72959;BME280;60008;50.826;6.896;2023-01-24T02:12:33;103029.31;;;2.61;100.00
72959;BME280;60008;50.826;6.896;2023-01-24T02:15:22;103036.16;;;2.65;100.00
72959;BME280;60008;50.826;6.896;2023-01-24T02:18:26;103031.88;;;2.62;100.00
72959;BME280;60008;50.826;6.896;2023-01-24T02:21:13;103037.22;;;2.59;100.00
72959;BME280;60008;50.826;6.896;2023-01-24T02:24:10;103033.72;;;2.59;100.00
72959;BME280;60008;50.826;6.896;2023-01-24T02:26:58;103031.88;;;2.62;100.00
72959;BME280;60008;50.826;6.896;2023-01-24T02:29:43;103035.53;;;2.58;100.00
72959;BME280;60008;50.826;6.896;2023-01-24T02:32:27;103036.34;;;2.59;100.00
72959;BME280;60008;50.826;6.896;2023-01-24T02:35:25;103033.00;;;2.55;100.00
72959;BME280;60008;50.826;6.896;2023-01-24T02:38:18;103018.19;;;2.54;100.00
72959;BME280;60008;50.826;6.896;2023-01-24T02:41:05;103023.59;;;2.50;100.00
72959;BME280;60008;50.826;6.896;2023-01-24T02:43:54;103023.53;;;2.51;100.00
72959;BME280;60008;50.826;6.896;2023-01-24T02:46:44;103021.72;;;2.53;100.00
72959;BME280;60008;50.826;6.896;2023-01-24T02:49:29;103028.84;;;2.50;100.00
72959;BME280;60008;50.826;6.896;2023-01-24T02:52:14;103028.88;;;2.48;100.00
72959;BME280;60008;50.826;6.896;2023-01-24T02:55:18;103028.94;;;2.47;100.00
72959;BME280;60008;50.826;6.896;2023-01-24T02:58:06;103028.97;;;2.45;100.00
72959;BME280;60008;50.826;6.896;2023-01-24T03:00:51;103029.16;;;2.40;100.00
72959;BME280;60008;50.826;6.896;2023-01-24T03:03:36;103028.97;;;2.45;100.00
72959;BME280;60008;50.826;6.896;2023-01-24T03:06:21;103029.91;;;2.44;100.00
72959;BME280;60008;50.826;6.896;2023-01-24T03:09:06;103033.47;;;2.42;100.00
72959;BME280;60008;50.826;6.896;2023-01-24T03:12:06;103019.63;;;2.38;100.00
72959;BME280;60008;50.826;6.896;2023-01-24T03:15:10;103020.53;;;2.37;100.00
72959;BME280;60008;50.826;6.896;2023-01-24T03:18:14;103020.59;;;2.35;100.00
72959;BME280;60008;50.826;6.896;2023-01-24T03:21:18;103018.75;;;2.39;100.00
72959;BME280;60008;50.826;6.896;2023-01-24T03:24:22;103017.13;;;2.35;100.00
72959;BME280;60008;50.826;6.896;2023-01-24T03:27:25;103020.50;;;2.38;100.00
72959;BME280;60008;50.826;6.896;2023-01-24T03:30:29;103018.84;;;2.36;100.00
72959;BME280;60008;50.826;6.896;2023-01-24T03:33:33;103023.31;;;2.32;100.00
72959;BME280;60008;50.826;6.896;2023-01-24T03:36:37;103013.75;;;2.31;100.00
72959;BME280;60008;50.826;6.896;2023-01-24T03:39:21;103010.13;;;2.35;100.00
72959;BME280;60008;50.826;6.896;2023-01-24T03:42:26;103009.28;;;2.35;100.00
72959;BME280;60008;50.826;6.896;2023-01-24T03:45:11;103007.56;;;2.34;100.00
72959;BME280;60008;50.826;6.896;2023-01-24T03:48:03;103006.75;;;2.32;100.00
72959;BME280;60008;50.826;6.896;2023-01-24T03:50:52;103007.06;;;2.23;100.00
72959;BME280;60008;50.826;6.896;2023-01-24T03:53:56;103008.94;;;2.19;100.00
72959;BME280;60008;50.826;6.896;2023-01-24T03:56:41;103008.75;;;2.25;100.00
72959;BME280;60008;50.826;6.896;2023-01-24T03:59:26;103008.84;;;2.22;100.00
72959;BME280;60008;50.826;6.896;2023-01-24T04:02:10;103012.34;;;2.21;100.00
72959;BME280;60008;50.826;6.896;2023-01-24T04:04:55;103008.97;;;2.18;100.00
72959;BME280;60008;50.826;6.896;2023-01-24T04:07:58;103006.31;;;2.19;100.00
72959;BME280;60008;50.826;6.896;2023-01-24T04:10:43;103001.34;;;2.12;100.00
72959;BME280;60008;50.826;6.896;2023-01-24T04:13:29;103005.66;;;2.13;100.00
72959;BME280;60008;50.826;6.896;2023-01-24T04:16:14;103011.56;;;2.19;100.00
72959;BME280;60008;50.826;6.896;2023-01-24T04:18:59;103007.31;;;2.15;100.00
72959;BME280;60008;50.826;6.896;2023-01-24T04:21:44;103006.72;;;2.07;100.00
72959;BME280;60008;50.826;6.896;2023-01-24T04:24:29;103011.84;;;2.10;100.00
72959;BME280;60008;50.826;6.896;2023-01-24T04:27:14;103015.16;;;2.15;100.00
72959;BME280;60008;50.826;6.896;2023-01-24T04:29:59;103015.03;;;2.20;100.00
72959;BME280;60008;50.826;6.896;2023-01-24T04:32:44;103013.00;;;2.02;100.00
72959;BME280;60008;50.826;6.896;2023-01-24T04:35:29;103019.88;;;2.04;100.00
72959;BME280;60008;50.826;6.896;2023-01-24T04:38:15;103020.72;;;2.06;100.00
72959;BME280;60008;50.826;6.896;2023-01-24T04:41:00;103014.53;;;2.09;100.00
72959;BME280;60008;50.826;6.896;2023-01-24T04:43:45;103017.09;;;2.10;100.00
72959;BME280;60008;50.826;6.896;2023-01-24T04:46:30;103011.84;;;2.10;100.00
72959;BME280;60008;50.826;6.896;2023-01-24T04:49:15;103012.88;;;2.06;100.00
72959;BME280;60008;50.826;6.896;2023-01-24T04:52:00;103015.53;;;2.05;100.00
72959;BME280;60008;50.826;6.896;2023-01-24T04:54:45;103008.53;;;2.05;100.00
72959;BME280;60008;50.826;6.896;2023-01-24T04:57:30;103014.63;;;2.06;100.00
72959;BME280;60008;50.826;6.896;2023-01-24T05:00:15;103011.50;;;1.95;100.00
72959;BME280;60008;50.826;6.896;2023-01-24T05:03:00;103011.53;;;1.93;100.00
72959;BME280;60008;50.826;6.896;2023-01-24T05:05:49;103005.50;;;1.91;100.00
72959;BME280;60008;50.826;6.896;2023-01-24T05:08:34;103006.28;;;1.95;100.00
72959;BME280;60008;50.826;6.896;2023-01-24T05:11:19;103006.31;;;1.93;100.00
72959;BME280;60008;50.826;6.896;2023-01-24T05:14:04;103005.50;;;1.91;100.00
72959;BME280;60008;50.826;6.896;2023-01-24T05:16:49;103008.81;;;1.96;100.00
72959;BME280;60008;50.826;6.896;2023-01-24T05:19:34;103013.16;;;1.97;100.00
72959;BME280;60008;50.826;6.896;2023-01-24T05:22:19;103011.34;;;1.99;100.00
72959;BME280;60008;50.826;6.896;2023-01-24T05:25:04;103004.53;;;1.95;100.00
72959;BME280;60008;50.826;6.896;2023-01-24T05:27:49;103004.47;;;1.97;100.00
72959;BME280;60008;50.826;6.896;2023-01-24T05:30:34;103020.94;;;1.99;100.00
72959;BME280;60008;50.826;6.896;2023-01-24T05:33:19;103020.94;;;1.99;100.00
72959;BME280;60008;50.826;6.896;2023-01-24T05:36:23;103019.38;;;1.93;100.00
72959;BME280;60008;50.826;6.896;2023-01-24T05:39:08;103019.25;;;1.98;100.00
72959;BME280;60008;50.826;6.896;2023-01-24T05:41:53;103023.56;;;1.99;100.00
72959;BME280;60008;50.826;6.896;2023-01-24T05:44:38;103019.28;;;1.96;100.00
72959;BME280;60008;50.826;6.896;2023-01-24T05:47:23;103025.34;;;1.98;100.00
72959;BME280;60008;50.826;6.896;2023-01-24T05:50:09;103027.09;;;1.98;100.00
72959;BME280;60008;50.826;6.896;2023-01-24T05:52:54;103033.19;;;1.98;100.00
72959;BME280;60008;50.826;6.896;2023-01-24T05:55:39;103027.63;;;2.07;100.00
72959;BME280;60008;50.826;6.896;2023-01-24T05:58:25;103027.81;;;2.03;100.00
72959;BME280;60008;50.826;6.896;2023-01-24T06:01:17;103034.09;;;1.97;100.00
72959;BME280;60008;50.826;6.896;2023-01-24T06:04:02;103035.91;;;1.95;100.00
72959;BME280;60008;50.826;6.896;2023-01-24T06:06:49;103040.16;;;1.98;100.00
72959;BME280;60008;50.826;6.896;2023-01-24T06:09:34;103035.47;;;2.07;100.00
72959;BME280;60008;50.826;6.896;2023-01-24T06:12:19;103034.69;;;2.05;100.00
72959;BME280;60008;50.826;6.896;2023-01-24T06:15:04;103038.19;;;2.04;100.00
72959;BME280;60008;50.826;6.896;2023-01-24T06:17:49;103041.75;;;2.02;100.00
72959;BME280;60008;50.826;6.896;2023-01-24T06:20:34;103046.09;;;2.03;100.00
72959;BME280;60008;50.826;6.896;2023-01-24T06:23:24;103046.25;;;1.98;100.00
72959;BME280;60008;50.826;6.896;2023-01-24T06:26:10;103052.38;;;1.97;100.00
72959;BME280;60008;50.826;6.896;2023-01-24T06:28:56;103055.97;;;1.93;100.00
72959;BME280;60008;50.826;6.896;2023-01-24T06:35:07;103062.78;;;1.99;100.00
72959;BME280;60008;50.826;6.896;2023-01-24T06:37:55;103069.72;;;2.00;100.00
72959;BME280;60008;50.826;6.896;2023-01-24T06:40:43;103073.84;;;2.07;100.00
72959;BME280;60008;50.826;6.896;2023-01-24T06:43:28;103073.13;;;2.03;100.00
72959;BME280;60008;50.826;6.896;2023-01-24T06:46:13;103074.81;;;2.04;100.00
72959;BME280;60008;50.826;6.896;2023-01-24T06:48:58;103084.53;;;2.01;100.00
72959;BME280;60008;50.826;6.896;2023-01-24T06:51:49;103081.84;;;2.02;100.00
72959;BME280;60008;50.826;6.896;2023-01-24T06:54:35;103080.75;;;2.09;100.00
72959;BME280;60008;50.826;6.896;2023-01-24T06:57:20;103080.28;;;1.97;100.00
72959;BME280;60008;50.826;6.896;2023-01-24T07:00:06;103075.81;;;2.00;100.00
72959;BME280;60008;50.826;6.896;2023-01-24T07:03:02;103082.09;;;1.95;100.00
72959;BME280;60008;50.826;6.896;2023-01-24T07:05:47;103080.91;;;2.05;100.00
72959;BME280;60008;50.826;6.896;2023-01-24T07:08:32;103089.75;;;2.01;100.00
72959;BME280;60008;50.826;6.896;2023-01-24T07:11:17;103086.94;;;2.07;100.00
72959;BME280;60008;50.826;6.896;2023-01-24T07:14:02;103096.75;;;2.00;100.00
72959;BME280;60008;50.826;6.896;2023-01-24T07:16:48;103097.78;;;1.95;100.00
72959;BME280;60008;50.826;6.896;2023-01-24T07:19:34;103095.19;;;1.95;100.00
72959;BME280;60008;50.826;6.896;2023-01-24T07:22:20;103092.66;;;1.92;100.00
72959;BME280;60008;50.826;6.896;2023-01-24T07:25:11;103095.09;;;1.98;100.00
72959;BME280;60008;50.826;6.896;2023-01-24T07:27:57;103107.38;;;1.94;100.00
72959;BME280;60008;50.826;6.896;2023-01-24T07:30:42;103110.72;;;1.99;100.00
72959;BME280;60008;50.826;6.896;2023-01-24T07:33:30;103110.59;;;2.04;100.00
72959;BME280;60008;50.826;6.896;2023-01-24T07:36:16;103115.94;;;1.99;100.00
72959;BME280;60008;50.826;6.896;2023-01-24T07:39:00;103120.22;;;2.02;100.00
72959;BME280;60008;50.826;6.896;2023-01-24T07:41:45;103118.56;;;1.99;100.00
72959;BME280;60008;50.826;6.896;2023-01-24T07:44:30;103124.59;;;2.01;100.00
72959;BME280;60008;50.826;6.896;2023-01-24T07:47:15;103124.41;;;2.07;100.00
72959;BME280;60008;50.826;6.896;2023-01-24T07:50:00;103136.84;;;1.99;100.00
72959;BME280;60008;50.826;6.896;2023-01-24T07:52:45;103132.09;;;1.84;100.00
72959;BME280;60008;50.826;6.896;2023-01-24T07:55:34;103135.91;;;2.02;100.00
72959;BME280;60008;50.826;6.896;2023-01-24T07:58:19;103137.66;;;2.01;100.00
72959;BME280;60008;50.826;6.896;2023-01-24T08:01:04;103138.59;;;2.00;100.00
72959;BME280;60008;50.826;6.896;2023-01-24T08:03:49;103144.66;;;2.01;100.00
72959;BME280;60008;50.826;6.896;2023-01-24T08:06:35;103142.84;;;2.03;100.00
72959;BME280;60008;50.826;6.896;2023-01-24T08:09:20;103138.50;;;2.03;100.00
72959;BME280;60008;50.826;6.896;2023-01-24T08:12:05;103140.00;;;2.10;100.00
72959;BME280;60008;50.826;6.896;2023-01-24T08:14:50;103149.31;;;1.91;100.00
72959;BME280;60008;50.826;6.896;2023-01-24T08:17:36;103152.44;;;2.04;100.00
72959;BME280;60008;50.826;6.896;2023-01-24T08:20:21;103166.25;;;2.07;100.00
72959;BME280;60008;50.826;6.896;2023-01-24T08:23:07;103157.69;;;2.02;100.00
72959;BME280;60008;50.826;6.896;2023-01-24T08:25:52;103163.59;;;2.09;100.00
72959;BME280;60008;50.826;6.896;2023-01-24T08:28:36;103161.97;;;2.05;100.00
72959;BME280;60008;50.826;6.896;2023-01-24T08:31:21;103164.41;;;2.11;100.00
72959;BME280;60008;50.826;6.896;2023-01-24T08:34:06;103156.38;;;2.17;100.00
72959;BME280;60008;50.826;6.896;2023-01-24T08:36:51;103156.06;;;2.26;100.00
72959;BME280;60008;50.826;6.896;2023-01-24T08:39:36;103157.84;;;2.25;100.00
72959;BME280;60008;50.826;6.896;2023-01-24T08:42:22;103165.72;;;2.24;100.00
72959;BME280;60008;50.826;6.896;2023-01-24T08:45:09;103168.00;;;2.07;100.00
72959;BME280;60008;50.826;6.896;2023-01-24T08:47:54;103165.25;;;2.11;100.00
72959;BME280;60008;50.826;6.896;2023-01-24T08:50:39;103160.75;;;2.16;100.00
72959;BME280;60008;50.826;6.896;2023-01-24T08:53:28;103159.50;;;2.28;100.00
72959;BME280;60008;50.826;6.896;2023-01-24T08:56:13;103163.03;;;2.27;100.00
72959;BME280;60008;50.826;6.896;2023-01-24T08:58:57;103166.63;;;2.23;100.00
72959;BME280;60008;50.826;6.896;2023-01-24T09:01:42;103175.41;;;2.22;100.00
72959;BME280;60008;50.826;6.896;2023-01-24T09:04:27;103170.34;;;2.16;100.00
72959;BME280;60008;50.826;6.896;2023-01-24T09:07:12;103179.00;;;2.18;100.00
72959;BME280;60008;50.826;6.896;2023-01-24T09:09:57;103181.91;;;2.09;100.00
72959;BME280;60008;50.826;6.896;2023-01-24T09:12:42;103180.44;;;2.28;100.00
72959;BME280;60008;50.826;6.896;2023-01-24T09:15:27;103187.44;;;2.27;100.00
72959;BME280;60008;50.826;6.896;2023-01-24T09:18:13;103193.78;;;2.19;100.00
72959;BME280;60008;50.826;6.896;2023-01-24T09:21:02;103185.06;;;2.20;100.00
72959;BME280;60008;50.826;6.896;2023-01-24T09:23:47;103192.06;;;2.18;100.00
72959;BME280;60008;50.826;6.896;2023-01-24T09:26:32;103188.69;;;2.42;100.00
72959;BME280;60008;50.826;6.896;2023-01-24T09:29:18;103190.56;;;2.38;100.00
72959;BME280;60008;50.826;6.896;2023-01-24T09:32:03;103199.38;;;2.36;100.00
72959;BME280;60008;50.826;6.896;2023-01-24T09:34:48;103187.81;;;2.43;100.00
72959;BME280;60008;50.826;6.896;2023-01-24T09:37:33;103181.78;;;2.41;100.00
72959;BME280;60008;50.826;6.896;2023-01-24T09:40:25;103195.13;;;2.32;100.00
72959;BME280;60008;50.826;6.896;2023-01-24T09:43:34;103193.53;;;2.28;100.00
72959;BME280;60008;50.826;6.896;2023-01-24T09:46:26;103200.19;;;2.38;100.00
72959;BME280;60008;50.826;6.896;2023-01-24T09:52:37;103202.94;;;2.33;100.00
72959;BME280;60008;50.826;6.896;2023-01-24T09:55:34;103199.41;;;2.34;100.00
72959;BME280;60008;50.826;6.896;2023-01-24T09:58:39;103199.59;;;2.28;100.00
72959;BME280;60008;50.826;6.896;2023-01-24T10:01:28;103199.13;;;2.44;100.00
72959;BME280;60008;50.826;6.896;2023-01-24T10:04:19;103204.16;;;2.22;100.00
72959;BME280;60008;50.826;6.896;2023-01-24T10:07:10;103196.50;;;2.44;100.00
72959;BME280;60008;50.826;6.896;2023-01-24T10:10:10;103200.78;;;2.46;100.00
72959;BME280;60008;50.826;6.896;2023-01-24T10:13:03;103205.84;;;2.52;100.00
72959;BME280;60008;50.826;6.896;2023-01-24T10:16:23;103199.66;;;2.55;100.00
72959;BME280;60008;50.826;6.896;2023-01-24T10:19:52;103201.97;;;2.64;100.00
72959;BME280;60008;50.826;6.896;2023-01-24T10:22:51;103204.22;;;2.48;100.00
72959;BME280;60008;50.826;6.896;2023-01-24T10:28:36;103211.69;;;2.32;100.00
72959;BME280;60008;50.826;6.896;2023-01-24T10:31:27;103218.41;;;2.41;100.00
72959;BME280;60008;50.826;6.896;2023-01-24T10:34:29;103206.97;;;2.44;100.00
72959;BME280;60008;50.826;6.896;2023-01-24T10:37:23;103201.13;;;2.63;100.00
72959;BME280;60008;50.826;6.896;2023-01-24T10:40:14;103195.53;;;2.74;100.00
72959;BME280;60008;50.826;6.896;2023-01-24T10:43:06;103201.06;;;2.91;100.00
72959;BME280;60008;50.826;6.896;2023-01-24T10:46:04;103194.66;;;2.99;100.00
72959;BME280;60008;50.826;6.896;2023-01-24T10:48:56;103190.38;;;2.97;100.00
72959;BME280;60008;50.826;6.896;2023-01-24T10:51:42;103196.78;;;2.88;100.00
72959;BME280;60008;50.826;6.896;2023-01-24T10:54:27;103189.13;;;3.09;100.00
72959;BME280;60008;50.826;6.896;2023-01-24T10:57:18;103186.50;;;3.09;100.00
72959;BME280;60008;50.826;6.896;2023-01-24T11:00:17;103179.78;;;3.02;100.00
72959;BME280;60008;50.826;6.896;2023-01-24T11:03:22;103181.94;;;2.63;100.00
72959;BME280;60008;50.826;6.896;2023-01-24T11:06:22;103186.53;;;2.82;100.00
72959;BME280;60008;50.826;6.896;2023-01-24T11:09:14;103178.75;;;3.06;100.00
72959;BME280;60008;50.826;6.896;2023-01-24T11:12:00;103177.47;;;2.91;100.00
72959;BME280;60008;50.826;6.896;2023-01-24T11:14:47;103182.00;;;2.87;100.00
72959;BME280;60008;50.826;6.896;2023-01-24T11:17:35;103183.09;;;2.80;100.00
72959;BME280;60008;50.826;6.896;2023-01-24T11:20:32;103175.81;;;2.88;100.00
72959;BME280;60008;50.826;6.896;2023-01-24T11:23:19;103169.53;;;2.94;100.00
72959;BME280;60008;50.826;6.896;2023-01-24T11:26:24;103167.22;;;2.59;100.00
72959;BME280;60008;50.826;6.896;2023-01-24T11:29:16;103172.81;;;2.48;100.00
72959;BME280;60008;50.826;6.896;2023-01-24T11:32:24;103177.06;;;2.78;100.00
72959;BME280;60008;50.826;6.896;2023-01-24T11:35:18;103168.75;;;2.66;100.00
72959;BME280;60008;50.826;6.896;2023-01-24T11:38:22;103162.13;;;2.80;100.00
72959;BME280;60008;50.826;6.896;2023-01-24T11:41:29;103155.94;;;2.83;100.00
72959;BME280;60008;50.826;6.896;2023-01-24T11:44:58;103153.97;;;2.89;100.00
72959;BME280;60008;50.826;6.896;2023-01-24T11:47:58;103153.31;;;3.09;100.00
72959;BME280;60008;50.826;6.896;2023-01-24T11:51:08;103151.72;;;2.79;100.00
72959;BME280;60008;50.826;6.896;2023-01-24T11:54:13;103147.22;;;2.58;100.00
72959;BME280;60008;50.826;6.896;2023-01-24T12:00:02;103153.03;;;2.92;100.00
72959;BME280;60008;50.826;6.896;2023-01-24T12:03:09;103152.22;;;2.90;100.00
72959;BME280;60008;50.826;6.896;2023-01-24T12:06:12;103152.16;;;2.91;100.00
72959;BME280;60008;50.826;6.896;2023-01-24T12:14:59;103136.28;;;2.71;100.00
72959;BME280;60008;50.826;6.896;2023-01-24T12:18:09;103134.63;;;2.69;100.00
72959;BME280;60008;50.826;6.896;2023-01-24T12:21:08;103128.19;;;2.77;100.00
72959;BME280;60008;50.826;6.896;2023-01-24T12:24:01;103132.34;;;2.84;100.00
72959;BME280;60008;50.826;6.896;2023-01-24T12:26:53;103127.97;;;2.85;100.00
72959;BME280;60008;50.826;6.896;2023-01-24T12:29:48;103123.56;;;2.85;100.00
72959;BME280;60008;50.826;6.896;2023-01-24T12:32:44;103120.13;;;2.83;100.00
72959;BME280;60008;50.826;6.896;2023-01-24T12:35:33;103121.31;;;2.75;100.00
72959;BME280;60008;50.826;6.896;2023-01-24T12:38:34;103116.53;;;2.87;100.00
72959;BME280;60008;50.826;6.896;2023-01-24T12:41:29;103114.59;;;2.92;100.00
72959;BME280;60008;50.826;6.896;2023-01-24T12:44:26;103111.00;;;2.70;100.00
72959;BME280;60008;50.826;6.896;2023-01-24T12:47:35;103106.09;;;2.86;100.00
72959;BME280;60008;50.826;6.896;2023-01-24T12:50:36;103108.50;;;2.92;100.00
72959;BME280;60008;50.826;6.896;2023-01-24T12:53:32;103110.91;;;2.98;100.00
72959;BME280;60008;50.826;6.896;2023-01-24T12:56:26;103106.66;;;2.94;100.00
72959;BME280;60008;50.826;6.896;2023-01-24T12:59:13;103103.56;;;2.83;100.00
72959;BME280;60008;50.826;6.896;2023-01-24T13:05:30;103100.00;;;2.85;100.00
72959;BME280;60008;50.826;6.896;2023-01-24T13:11:17;103094.13;;;2.79;100.00
72959;BME280;60008;50.826;6.896;2023-01-24T13:14:13;103092.56;;;2.73;100.00
72959;BME280;60008;50.826;6.896;2023-01-24T13:23:31;103092.25;;;3.07;100.00
72959;BME280;60008;50.826;6.896;2023-01-24T13:26:30;103085.22;;;3.08;100.00
72959;BME280;60008;50.826;6.896;2023-01-24T13:32:33;103087.34;;;2.98;100.00
72959;BME280;60008;50.826;6.896;2023-01-24T13:35:24;103098.88;;;2.92;100.00
72959;BME280;60008;50.826;6.896;2023-01-24T13:38:25;103084.72;;;2.73;100.00
72959;BME280;60008;50.826;6.896;2023-01-24T13:41:38;103089.47;;;2.87;100.00
72959;BME280;60008;50.826;6.896;2023-01-24T13:50:14;103081.94;;;3.03;100.00
72959;BME280;60008;50.826;6.896;2023-01-24T13:53:00;103087.16;;;2.78;100.00
72959;BME280;60008;50.826;6.896;2023-01-24T13:56:00;103090.16;;;2.67;100.00
72959;BME280;60008;50.826;6.896;2023-01-24T13:58:49;103092.69;;;2.70;100.00
72959;BME280;60008;50.826;6.896;2023-01-24T14:01:44;103097.50;;;2.82;100.00
72959;BME280;60008;50.826;6.896;2023-01-24T14:04:42;103096.69;;;3.05;100.00
72959;BME280;60008;50.826;6.896;2023-01-24T14:07:35;103093.09;;;2.58;100.00
72959;BME280;60008;50.826;6.896;2023-01-24T14:10:43;103095.59;;;2.61;100.00
72959;BME280;60008;50.826;6.896;2023-01-24T14:19:26;103103.25;;;2.67;100.00
72959;BME280;60008;50.826;6.896;2023-01-24T14:22:21;103098.09;;;2.64;100.00
72959;BME280;60008;50.826;6.896;2023-01-24T14:25:39;103096.09;;;2.72;100.00
72959;BME280;60008;50.826;6.896;2023-01-24T14:28:36;103102.34;;;2.68;100.00
72959;BME280;60008;50.826;6.896;2023-01-24T14:31:34;103106.22;;;2.57;100.00
72959;BME280;60008;50.826;6.896;2023-01-24T14:34:35;103100.19;;;2.55;100.00
72959;BME280;60008;50.826;6.896;2023-01-24T14:37:25;103104.31;;;2.62;100.00
72959;BME280;60008;50.826;6.896;2023-01-24T14:43:03;103103.16;;;2.70;100.00
72959;BME280;60008;50.826;6.896;2023-01-24T14:45:50;103100.59;;;2.69;100.00
72959;BME280;60008;50.826;6.896;2023-01-24T14:48:35;103102.47;;;2.64;100.00
72959;BME280;60008;50.826;6.896;2023-01-24T14:51:23;103106.91;;;2.62;100.00
72959;BME280;60008;50.826;6.896;2023-01-24T14:54:18;103096.88;;;2.50;100.00
72959;BME280;60008;50.826;6.896;2023-01-24T14:57:19;103098.66;;;2.48;100.00
72959;BME280;60008;50.826;6.896;2023-01-24T15:00:16;103110.97;;;2.46;100.00
72959;BME280;60008;50.826;6.896;2023-01-24T15:03:02;103112.47;;;2.53;100.00
72959;BME280;60008;50.826;6.896;2023-01-24T15:05:50;103105.00;;;2.67;100.00
72959;BME280;60008;50.826;6.896;2023-01-24T15:08:35;103106.16;;;2.84;100.00
72959;BME280;60008;50.826;6.896;2023-01-24T15:11:25;103101.59;;;2.65;100.00
72959;BME280;60008;50.826;6.896;2023-01-24T15:14:18;103107.44;;;2.47;100.00
72959;BME280;60008;50.826;6.896;2023-01-24T15:17:03;103099.41;;;2.53;100.00
72959;BME280;60008;50.826;6.896;2023-01-24T15:19:50;103103.44;;;2.61;100.00
72959;BME280;60008;50.826;6.896;2023-01-24T15:22:39;103106.72;;;2.68;100.00
72959;BME280;60008;50.826;6.896;2023-01-24T15:25:30;103101.09;;;2.54;100.00
72959;BME280;60008;50.826;6.896;2023-01-24T15:28:23;103098.19;;;2.63;100.00
72959;BME280;60008;50.826;6.896;2023-01-24T15:31:23;103105.88;;;2.41;100.00
72959;BME280;60008;50.826;6.896;2023-01-24T15:34:19;103107.53;;;2.44;100.00
72959;BME280;60008;50.826;6.896;2023-01-24T15:37:09;103112.16;;;2.35;100.00
72959;BME280;60008;50.826;6.896;2023-01-24T15:39:57;103117.31;;;2.38;100.00